Time;durP1;ratioP1;P1;durP2;ratioP2;P2;SDS_P1;SDS_P2;PMS_P1;PMS_P2;Temp;Humidity;BMP_temperature;BMP_pressure;BME280_temperature;BME280_humidity;BME280_pressure;Samples;Min_cycle;Max_cycle;Signal;HPM_P1;HPM_P2
2022/03/13 00:02:01;;;;;;;30.08;15.05;;;;;;;8.59;59.09;101502.63;5021312;28;20068;-67
2022/03/13 00:04:27;;;;;;;28.88;15.38;;;;;;;8.58;58.47;101507.06;5021212;28;20045;-67
2022/03/13 00:06:52;;;;;;;26.00;14.35;;;;;;;8.54;59.20;101503.69;5021027;28;20041;-67
2022/03/13 00:09:22;;;;;;;29.88;15.73;;;;;;;8.59;58.52;101505.28;5020707;28;20111;-67
2022/03/13 00:11:52;;;;;;;33.72;16.92;;;;;;;8.49;58.61;101510.16;5019551;28;20080;-67
2022/03/13 00:14:20;;;;;;;30.60;15.85;;;;;;;8.45;59.03;101503.22;5021023;28;20800;-67
2022/03/13 00:16:45;;;;;;;28.25;15.48;;;;;;;8.44;59.00;101505.03;5021112;28;20060;-67
2022/03/13 00:19:11;;;;;;;33.20;15.98;;;;;;;8.36;58.93;101503.59;5021164;28;20151;-67
2022/03/13 00:21:37;;;;;;;32.95;16.05;;;;;;;8.33;58.82;101504.56;5020913;28;20045;-67
2022/03/13 00:24:03;;;;;;;29.63;16.42;;;;;;;8.32;59.17;101503.72;5021014;28;20037;-67
2022/03/13 00:26:28;;;;;;;29.63;15.77;;;;;;;8.32;58.55;101498.41;5020945;28;20045;-67
2022/03/13 00:28:54;;;;;;;32.47;16.40;;;;;;;8.29;58.30;101503.00;5020841;28;20099;-67
2022/03/13 00:31:20;;;;;;;30.10;16.45;;;;;;;8.27;58.39;101503.06;5019964;28;20045;-67
2022/03/13 00:33:46;;;;;;;29.33;15.93;;;;;;;8.24;58.68;101502.34;5013836;28;20522;-67
2022/03/13 00:36:12;;;;;;;31.33;16.90;;;;;;;8.22;58.91;101506.84;5012645;28;20042;-67
2022/03/13 00:38:37;;;;;;;30.50;15.88;;;;;;;8.21;59.16;101507.78;5012884;28;20038;-67
2022/03/13 00:41:04;;;;;;;32.13;16.05;;;;;;;8.24;58.63;101505.84;5010105;28;20097;-67
2022/03/13 00:43:29;;;;;;;31.35;16.50;;;;;;;8.25;58.40;101509.38;5001057;28;20052;-67
2022/03/13 00:45:55;;;;;;;33.58;16.17;;;;;;;8.28;58.54;101506.56;5001025;28;20582;-66
2022/03/13 00:48:21;;;;;;;33.47;16.80;;;;;;;8.31;57.72;101504.66;5001193;28;20034;-68
2022/03/13 00:50:47;;;;;;;31.33;17.38;;;;;;;8.31;57.81;101503.78;5004804;28;20041;-69
2022/03/13 00:53:13;;;;;;;32.00;16.23;;;;;;;8.17;58.28;101503.53;5017383;28;20048;-67
2022/03/13 00:55:38;;;;;;;32.35;16.98;;;;;;;8.10;58.68;101513.56;5020927;28;20126;-67
2022/03/13 00:58:04;;;;;;;35.03;16.73;;;;;;;8.08;58.31;101504.75;5020789;28;20441;-67
2022/03/13 01:00:29;;;;;;;35.30;16.98;;;;;;;8.13;58.22;101507.22;5005595;28;20522;-67
2022/03/13 01:02:55;;;;;;;34.92;16.92;;;;;;;8.11;58.45;101498.47;5001369;28;20037;-67
2022/03/13 01:05:23;;;;;;;32.58;16.45;;;;;;;8.12;57.90;101486.91;5002119;28;20034;-67
2022/03/13 01:07:49;;;;;;;30.20;16.90;;;;;;;8.05;58.18;101497.81;5001073;28;20553;-67
2022/03/13 01:10:15;;;;;;;34.28;16.20;;;;;;;8.07;58.81;101495.06;5001245;28;20041;-67
2022/03/13 01:12:40;;;;;;;30.40;15.93;;;;;;;8.07;58.18;101496.88;5000833;28;20384;-67
2022/03/13 01:15:08;;;;;;;35.38;16.88;;;;;;;8.04;58.70;101495.22;5000763;28;20052;-67
2022/03/13 01:17:34;;;;;;;38.72;16.67;;;;;;;8.00;59.29;101491.81;5000457;28;20056;-66
2022/03/13 01:20:02;;;;;;;35.00;17.23;;;;;;;8.02;59.05;101487.31;5002560;28;20046;-67
2022/03/13 01:22:28;;;;;;;37.95;16.90;;;;;;;8.03;58.60;101480.19;5015048;28;20049;-69
2022/03/13 01:24:54;;;;;;;39.67;17.30;;;;;;;8.01;58.58;101480.25;5000692;28;20045;-67
2022/03/13 01:27:21;;;;;;;33.10;16.67;;;;;;;7.99;58.42;101474.16;5000870;28;20054;-67
2022/03/13 01:29:47;;;;;;;33.50;17.33;;;;;;;8.00;58.43;101467.06;5000769;28;20053;-68
2022/03/13 01:32:16;;;;;;;31.23;15.82;;;;;;;8.04;58.14;101466.88;5000534;28;20581;-67
2022/03/13 01:34:47;;;;;;;34.97;17.83;;;;;;;7.99;58.65;101452.06;5001190;28;20116;-67
2022/03/13 01:37:35;;;;;;;33.63;16.67;;;;;;;7.95;58.47;101446.00;5001219;28;20038;-67
2022/03/13 01:40:09;;;;;;;33.03;16.80;;;;;;;8.00;58.10;101437.84;5000970;28;20121;-66
2022/03/13 01:42:34;;;;;;;;;;;;;;;7.88;59.46;101436.59;5001321;28;20153;-67
2022/03/13 01:44:59;;;;;;;31.38;16.58;;;;;;;7.77;59.66;101433.50;5000569;28;20578;-67
2022/03/13 01:47:25;;;;;;;31.00;16.02;;;;;;;7.78;60.13;101437.88;5000680;28;20117;-67
2022/03/13 01:49:51;;;;;;;31.73;17.33;;;;;;;7.70;59.67;101440.00;5000638;28;20550;-69
2022/03/13 01:52:23;;;;;;;32.80;17.02;;;;;;;7.68;60.06;101439.19;5000808;28;20060;-67
2022/03/13 01:54:49;;;;;;;;;;;;;;;7.70;60.01;101440.00;4999429;28;20502;-67
2022/03/13 01:57:17;;;;;;;30.90;17.30;;;;;;;7.76;60.20;101442.41;5000246;28;19921;-67
2022/03/13 01:59:49;;;;;;;28.73;15.82;;;;;;;7.78;59.56;101440.53;4999997;28;20115;-67
2022/03/13 02:02:14;;;;;;;30.73;15.50;;;;;;;7.77;60.22;101428.19;5023668;28;20908;-67
2022/03/13 02:04:41;;;;;;;32.80;15.75;;;;;;;7.72;59.66;101431.03;5043122;28;20045;-67
2022/03/13 02:07:06;;;;;;;31.90;16.23;;;;;;;7.76;59.86;101424.69;5043433;28;20048;-68
2022/03/13 02:09:33;;;;;;;31.15;15.65;;;;;;;7.66;60.54;101423.34;5042907;28;20055;-68
2022/03/13 02:12:02;;;;;;;31.05;14.80;;;;;;;7.73;61.47;101416.88;5043170;28;20094;-67
2022/03/13 02:14:28;;;;;;;29.85;15.75;;;;;;;7.72;60.85;101409.81;5029525;28;20046;-67
2022/03/13 02:16:53;;;;;;;33.15;15.68;;;;;;;7.68;60.92;101408.22;5023820;28;20083;-67
2022/03/13 02:19:19;;;;;;;33.63;15.75;;;;;;;7.68;61.51;101408.22;5023896;28;20148;-67
2022/03/13 02:21:52;;;;;;;28.65;15.90;;;;;;;7.69;60.52;101403.78;5023887;28;20084;-67
2022/03/13 02:24:24;;;;;;;27.85;15.38;;;;;;;7.63;61.08;101411.97;5022206;28;20049;-67
2022/03/13 02:27:02;;;;;;;33.20;16.67;;;;;;;7.61;61.23;101401.44;5023411;28;20057;-67
2022/03/13 02:29:28;;;;;;;30.33;15.85;;;;;;;7.63;61.37;101401.38;5023416;28;20080;-67
2022/03/13 02:31:55;;;;;;;30.10;15.82;;;;;;;7.66;61.17;101394.16;5023107;28;20036;-67
2022/03/13 02:34:21;;;;;;;32.38;16.85;;;;;;;7.62;60.85;101397.84;5023265;28;20041;-67
2022/03/13 02:36:49;;;;;;;33.53;17.08;;;;;;;7.70;61.23;101405.50;5023315;28;20037;-66
2022/03/13 02:39:15;;;;;;;33.17;16.05;;;;;;;7.70;60.31;101398.41;5021532;28;20049;-67
2022/03/13 02:41:42;;;;;;;29.17;16.45;;;;;;;7.68;60.93;101407.34;5021783;28;20045;-67
2022/03/13 02:44:10;;;;;;;29.33;16.80;;;;;;;7.64;61.24;101405.78;5023263;28;20037;-67
2022/03/13 02:46:58;;;;;;;30.10;16.10;;;;;;;7.69;60.71;101403.78;5022730;28;20045;-67
2022/03/13 02:49:26;;;;;;;38.70;15.75;;;;;;;7.72;61.02;101398.31;5021175;28;20517;-67
2022/03/13 02:51:55;;;;;;;32.88;16.35;;;;;;;7.78;59.83;101398.94;5022972;28;20037;-67
2022/03/13 02:54:21;;;;;;;31.55;16.05;;;;;;;7.81;59.30;101397.94;5022988;28;20045;-67
2022/03/13 02:56:47;;;;;;;32.60;16.05;;;;;;;7.84;58.91;101396.97;5021314;28;20040;-67
2022/03/13 02:59:14;;;;;;;33.67;16.73;;;;;;;7.86;59.34;101392.44;5005237;28;20034;-67
2022/03/13 03:01:40;;;;;;;31.42;15.75;;;;;;;7.80;59.84;101396.22;5002854;28;20058;-67
2022/03/13 03:04:06;;;;;;;31.58;16.15;;;;;;;7.78;59.70;101401.59;5003255;28;20038;-68
2022/03/13 03:06:33;;;;;;;29.65;16.30;;;;;;;7.79;58.98;101391.84;5003171;28;20057;-67
2022/03/13 03:09:03;;;;;;;30.40;15.00;;;;;;;7.81;58.58;101392.63;5002820;28;20491;-67
2022/03/13 03:11:29;;;;;;;29.17;15.90;;;;;;;7.84;58.64;101395.16;5002511;28;20184;-67
2022/03/13 03:13:55;;;;;;;41.67;16.02;;;;;;;7.82;58.87;101390.84;5001183;28;20037;-67
2022/03/13 03:16:21;;;;;;;28.75;15.77;;;;;;;7.78;58.62;101384.78;5017246;28;20586;-67
2022/03/13 03:18:46;;;;;;;35.10;16.52;;;;;;;7.75;58.54;101383.13;5000804;28;20045;-67
2022/03/13 03:21:13;;;;;;;29.42;15.77;;;;;;;7.69;58.79;101378.09;5010942;28;20506;-67
2022/03/13 03:23:39;;;;;;;31.08;15.55;;;;;;;7.58;59.36;101390.97;5020534;28;20038;-68
2022/03/13 03:26:05;;;;;;;31.40;16.02;;;;;;;7.52;58.82;101386.75;5022643;28;20041;-67
2022/03/13 03:28:31;;;;;;;34.67;16.52;;;;;;;7.48;58.46;101378.97;5022581;28;20053;-69
2022/03/13 03:30:59;;;;;;;29.05;14.77;;;;;;;7.38;59.18;101383.84;5022416;28;20096;-67
2022/03/13 03:33:25;;;;;;;32.20;15.65;;;;;;;7.41;58.84;101380.19;5022349;28;20057;-67
2022/03/13 03:35:50;;;;;;;33.28;15.90;;;;;;;7.37;59.09;101381.22;5022517;28;20037;-67
2022/03/13 03:38:15;;;;;;;31.67;15.60;;;;;;;7.27;59.70;101376.28;5024660;28;20046;-67
2022/03/13 03:40:41;;;;;;;35.22;16.20;;;;;;;7.21;59.27;101383.66;5026968;28;20489;-67
2022/03/13 03:43:07;;;;;;;31.15;15.60;;;;;;;7.21;59.37;101378.34;5026680;28;20045;-67
2022/03/13 03:45:32;;;;;;;32.38;16.08;;;;;;;7.18;58.77;101387.31;5024865;28;20095;-67
2022/03/13 03:47:58;;;;;;;33.25;15.27;;;;;;;7.18;58.82;101387.31;5023837;28;20044;-67
2022/03/13 03:50:25;;;;;;;33.72;16.67;;;;;;;7.13;59.25;101383.09;5020921;28;20541;-67
2022/03/13 03:52:55;;;;;;;33.40;16.63;;;;;;;7.11;58.69;101388.47;5021247;28;20040;-67
2022/03/13 03:55:22;;;;;;;28.70;14.27;;;;;;;7.11;57.95;101388.47;5021670;28;20053;-68
2022/03/13 03:57:47;;;;;;;28.05;15.20;;;;;;;7.04;58.31;101383.47;5022042;28;20504;-67
2022/03/13 04:00:13;;;;;;;31.25;15.88;;;;;;;7.01;58.10;101379.16;5019819;28;20049;-67
2022/03/13 04:02:42;;;;;;;32.30;14.82;;;;;;;6.96;57.69;101379.34;5021449;28;20052;-68
2022/03/13 04:05:09;;;;;;;33.13;15.40;;;;;;;7.02;57.74;101383.53;5021615;28;20037;-68
2022/03/13 04:07:36;;;;;;;36.45;16.65;;;;;;;7.07;57.01;101370.94;5021460;28;20041;-67
2022/03/13 04:10:02;;;;;;;24.88;14.13;;;;;;;7.21;55.92;101371.25;5021390;28;20082;-67
2022/03/13 04:12:28;;;;;;;29.23;15.00;;;;;;;7.18;55.69;101370.53;5021552;28;20410;-68
2022/03/13 04:14:54;;;;;;;26.95;14.57;;;;;;;7.17;55.39;101376.75;5021525;28;20048;-67
2022/03/13 04:17:19;;;;;;;27.30;14.32;;;;;;;7.20;55.19;101373.97;5021094;28;20281;-67
2022/03/13 04:19:45;;;;;;;26.98;14.15;;;;;;;7.22;55.17;101377.41;5020852;28;20049;-67
2022/03/13 04:22:12;;;;;;;29.15;15.02;;;;;;;7.19;55.64;101390.81;5016270;28;20045;-67
2022/03/13 04:24:37;;;;;;;29.63;13.73;;;;;;;7.15;55.60;101383.91;5019497;28;20062;-67
2022/03/13 04:27:03;;;;;;;23.67;13.55;;;;;;;7.09;56.17;101384.16;5021418;28;20771;-68
2022/03/13 04:29:29;;;;;;;24.00;13.45;;;;;;;7.07;54.99;101373.59;5021372;28;20051;-67
2022/03/13 04:31:55;;;;;;;28.45;14.55;;;;;;;7.12;55.23;101374.28;5021049;28;20069;-68
2022/03/13 04:34:22;;;;;;;29.40;13.90;;;;;;;7.11;54.89;101379.66;5019557;28;20121;-68
2022/03/13 04:36:47;;;;;;;23.70;12.63;;;;;;;7.14;54.43;101379.53;5021069;28;20049;-67
2022/03/13 04:39:13;;;;;;;30.58;13.27;;;;;;;7.14;53.99;101376.88;5020821;28;20099;-68
2022/03/13 04:41:39;;;;;;;25.45;13.20;;;;;;;7.17;54.04;101372.28;5021024;28;20489;-67
2022/03/13 04:44:06;;;;;;;26.92;12.93;;;;;;;7.13;53.61;101368.06;5020931;28;20095;-67
2022/03/13 04:46:32;;;;;;;26.90;13.00;;;;;;;7.21;53.09;101379.22;5020666;28;20520;-67
2022/03/13 04:48:57;;;;;;;31.80;12.43;;;;;;;7.18;53.77;101381.16;5018864;28;20048;-67
2022/03/13 04:51:23;;;;;;;23.98;12.27;;;;;;;7.21;53.01;101389.81;5019240;28;20044;-67
2022/03/13 04:53:49;;;;;;;25.75;12.90;;;;;;;7.14;54.22;101396.31;5020618;28;20064;-67
2022/03/13 04:56:14;;;;;;;27.77;12.93;;;;;;;7.08;55.04;101395.66;5020319;28;20037;-67
2022/03/13 04:58:40;;;;;;;24.88;11.85;;;;;;;7.08;54.27;101396.56;5020612;28;20103;-67
2022/03/13 05:01:05;;;;;;;20.52;11.25;;;;;;;7.07;54.61;101391.28;5021406;28;20062;-67
2022/03/13 05:03:33;;;;;;;30.95;13.20;;;;;;;7.09;53.84;101402.72;5020934;28;20128;-67
2022/03/13 05:06:05;;;;;;;24.92;12.30;;;;;;;7.08;53.42;101400.97;5020895;28;20045;-67
2022/03/13 05:08:36;;;;;;;24.60;12.93;;;;;;;7.08;53.07;101400.97;5020551;28;20045;-67
2022/03/13 05:11:05;;;;;;;25.45;12.20;;;;;;;7.15;52.60;101397.16;5020185;28;20529;-67
2022/03/13 05:13:31;;;;;;;25.20;11.82;;;;;;;7.18;51.39;101394.41;5018831;28;20056;-67
2022/03/13 05:15:57;;;;;;;23.98;12.20;;;;;;;7.25;52.05;101398.53;5019026;28;20045;-67
2022/03/13 05:18:22;;;;;;;28.27;12.45;;;;;;;7.25;51.30;101383.47;5020616;28;20148;-68
2022/03/13 05:20:48;;;;;;;21.98;10.88;;;;;;;7.29;49.66;101372.75;5013166;28;20601;-67
2022/03/13 05:23:14;;;;;;;19.25;10.77;;;;;;;7.27;50.19;101373.66;4999295;28;20045;-67
2022/03/13 05:25:40;;;;;;;24.77;11.25;;;;;;;7.32;49.54;101369.94;5000202;28;20093;-67
2022/03/13 05:28:08;;;;;;;32.28;12.38;;;;;;;7.36;48.61;101360.94;4999153;28;20514;-68
2022/03/13 05:30:34;;;;;;;23.88;11.18;;;;;;;7.37;48.86;101362.66;4998901;28;20045;-67
2022/03/13 05:33:00;;;;;;;21.60;11.32;;;;;;;7.39;48.42;101358.16;5000703;28;20077;-67
2022/03/13 05:35:25;;;;;;;20.58;11.38;;;;;;;7.41;48.08;101358.97;5001186;28;20533;-67
2022/03/13 05:37:51;;;;;;;30.55;11.73;;;;;;;7.45;47.51;101366.72;5004785;28;20081;-67
2022/03/13 05:40:19;;;;;;;26.67;12.32;;;;;;;7.38;49.02;101369.69;5007282;28;20038;-67
2022/03/13 05:42:50;;;;;;;26.70;12.32;;;;;;;7.43;47.94;101371.25;5024164;28;20072;-67
2022/03/13 05:45:19;;;;;;;21.77;10.23;;;;;;;7.48;47.42;101373.69;5020614;28;20628;-67
2022/03/13 05:47:50;;;;;;;28.33;11.38;;;;;;;7.46;46.65;101379.06;5014165;28;20427;-67
2022/03/13 05:50:17;;;;;;;20.08;10.75;;;;;;;7.40;47.71;101383.78;5013291;28;20038;-68
2022/03/13 05:52:44;;;;;;;23.35;11.43;;;;;;;7.36;49.10;101385.69;5011851;28;20158;-68
2022/03/13 05:55:10;;;;;;;21.75;10.98;;;;;;;7.44;47.70;101388.03;5016515;28;20087;-67
2022/03/13 05:57:35;;;;;;;22.83;11.57;;;;;;;7.51;46.87;101379.72;5018463;28;20045;-67
2022/03/13 06:00:05;;;;;;;22.05;10.77;;;;;;;7.62;45.60;101381.94;5019772;28;20115;-67
2022/03/13 06:02:41;;;;;;;20.52;10.70;;;;;;;7.64;45.71;101393.34;5014090;28;20679;-66
2022/03/13 06:05:09;;;;;;;20.80;11.05;;;;;;;7.71;47.09;101401.91;5018570;28;20501;-66
2022/03/13 06:07:36;;;;;;;21.90;11.45;;;;;;;7.67;46.09;101395.00;5017514;28;20053;-65
2022/03/13 06:10:04;;;;;;;22.42;11.25;;;;;;;7.70;46.56;101390.44;5013186;28;20050;-66
2022/03/13 06:12:33;;;;;;;23.07;10.97;;;;;;;7.71;46.07;101391.28;5016599;28;20111;-66
2022/03/13 06:15:00;;;;;;;23.38;11.57;;;;;;;7.72;46.41;101387.72;5020071;28;21345;-66
2022/03/13 06:17:26;;;;;;;24.25;13.02;;;;;;;7.78;45.27;101387.44;5015414;28;20087;-67
2022/03/13 06:19:55;;;;;;;21.00;10.60;;;;;;;7.78;46.02;101382.13;5015856;28;20033;-66
2022/03/13 06:22:25;;;;;;;24.75;10.80;;;;;;;7.84;44.93;101389.84;5017664;28;20052;-66
2022/03/13 06:24:53;;;;;;;22.20;10.68;;;;;;;7.85;44.76;101394.22;5013251;28;20095;-66
2022/03/13 06:27:20;;;;;;;24.20;11.75;;;;;;;7.77;45.57;101394.53;5023317;28;20608;-66
2022/03/13 06:29:46;;;;;;;23.27;11.48;;;;;;;7.77;45.43;101404.31;5021971;28;20029;-66
2022/03/13 06:32:11;;;;;;;22.40;11.25;;;;;;;7.73;45.66;101405.34;5015137;28;20079;-66
2022/03/13 06:34:37;;;;;;;21.98;10.73;;;;;;;7.74;44.95;101404.44;5030338;28;20072;-66
2022/03/13 06:37:04;;;;;;;24.52;11.20;;;;;;;7.75;45.16;101408.81;5012851;28;20034;-66
2022/03/13 06:39:31;;;;;;;24.73;11.13;;;;;;;7.82;44.29;101396.16;5004516;28;20046;-66
2022/03/13 06:41:56;;;;;;;25.23;11.75;;;;;;;7.88;43.31;101393.22;5003760;28;20040;-68
2022/03/13 06:44:22;;;;;;;22.73;10.93;;;;;;;7.95;42.60;101389.38;5003113;28;20033;-68
2022/03/13 06:46:48;;;;;;;24.05;11.27;;;;;;;7.99;43.09;101402.47;5002302;28;20707;-68
2022/03/13 06:49:14;;;;;;;20.77;10.93;;;;;;;8.00;43.51;101398.88;5002074;28;20103;-67
2022/03/13 06:51:40;;;;;;;21.00;10.55;;;;;;;8.08;43.15;101398.53;5017841;28;20041;-67
2022/03/13 06:54:07;;;;;;;22.27;10.43;;;;;;;8.12;42.71;101404.56;5002985;28;20049;-67
2022/03/13 06:56:34;;;;;;;18.58;10.45;;;;;;;8.10;43.16;101404.66;5001564;28;20037;-66
2022/03/13 06:59:03;;;;;;;18.95;10.90;;;;;;;8.19;42.69;101400.72;5006878;28;20505;-67
2022/03/13 07:01:36;;;;;;;23.85;11.55;;;;;;;8.26;43.21;101403.03;5022863;28;20038;-67
2022/03/13 07:04:01;;;;;;;23.27;10.63;;;;;;;8.45;42.73;101400.44;5021946;28;20037;-67
2022/03/13 07:06:27;;;;;;;20.92;11.55;;;;;;;8.44;42.29;101401.38;5023223;28;20041;-67
2022/03/13 07:08:52;;;;;;;20.83;10.73;;;;;;;8.52;41.93;101396.56;5023560;28;20045;-67
2022/03/13 07:11:18;;;;;;;20.73;10.93;;;;;;;8.48;41.71;101388.78;5021660;28;20041;-67
2022/03/13 07:13:46;;;;;;;21.15;10.35;;;;;;;8.59;41.99;101396.31;5002667;28;20049;-66
2022/03/13 07:16:15;;;;;;;21.25;11.65;;;;;;;8.61;42.58;101391.75;5011038;28;20532;-66
2022/03/13 07:18:42;;;;;;;23.05;11.25;;;;;;;8.56;41.78;101387.50;5012044;28;20632;-67
2022/03/13 07:21:08;;;;;;;21.10;11.48;;;;;;;8.56;41.24;101381.34;5018140;28;20036;-67
2022/03/13 07:23:34;;;;;;;23.55;11.30;;;;;;;8.56;41.43;101382.19;5023500;28;20056;-66
2022/03/13 07:25:59;;;;;;;26.35;11.07;;;;;;;8.56;41.06;101384.00;5013754;28;20216;-66
2022/03/13 07:28:25;;;;;;;22.55;10.80;;;;;;;8.51;40.95;101384.22;5022021;28;20094;-67
2022/03/13 07:30:51;;;;;;;23.00;11.38;;;;;;;8.50;42.55;101387.81;5022226;28;20082;-67
2022/03/13 07:33:16;;;;;;;18.13;10.13;;;;;;;8.53;41.36;101393.00;5022123;28;20442;-67
2022/03/13 07:35:44;;;;;;;18.98;10.85;;;;;;;8.60;41.62;101398.03;5020035;28;20044;-66
2022/03/13 07:38:09;;;;;;;24.48;11.25;;;;;;;8.67;42.47;101396.78;5015205;28;20073;-67
2022/03/13 07:40:35;;;;;;;22.60;11.23;;;;;;;8.75;42.15;101389.31;5012841;28;20084;-67
2022/03/13 07:43:02;;;;;;;22.35;10.35;;;;;;;8.75;40.33;101387.53;5018421;28;20041;-68
2022/03/13 07:45:27;;;;;;;20.58;11.48;;;;;;;8.78;40.39;101387.38;5008785;28;20179;-67
2022/03/13 07:47:55;;;;;;;23.52;10.95;;;;;;;8.86;41.35;101380.84;5018303;28;20064;-68
2022/03/13 07:50:21;;;;;;;24.17;11.20;;;;;;;8.90;41.71;101391.25;5021537;28;20145;-67
2022/03/13 07:52:46;;;;;;;22.67;11.25;;;;;;;8.92;41.61;101391.19;5021398;28;20045;-68
2022/03/13 07:55:14;;;;;;;20.33;10.88;;;;;;;9.00;41.96;101394.34;5021043;28;20064;-68
2022/03/13 07:57:40;;;;;;;22.83;12.05;;;;;;;9.00;41.57;101387.22;5015524;28;20033;-68
2022/03/13 08:00:06;;;;;;;22.35;11.27;;;;;;;9.01;41.85;101386.28;5006689;28;20042;-68
2022/03/13 08:02:44;;;;;;;21.55;11.73;;;;;;;8.96;41.11;101390.09;5015839;28;20057;-66
2022/03/13 08:05:10;;;;;;;21.58;11.30;;;;;;;9.04;41.23;101386.16;5002090;28;20403;-67
2022/03/13 08:07:35;;;;;;;22.85;11.60;;;;;;;8.99;40.72;101398.81;5014253;28;20042;-67
2022/03/13 08:10:01;;;;;;;22.85;11.75;;;;;;;8.94;42.39;101392.84;5010395;28;20032;-66
2022/03/13 08:12:27;;;;;;;22.02;10.73;;;;;;;9.17;41.44;101396.19;5003239;28;20052;-68
2022/03/13 08:14:52;;;;;;;26.15;11.70;;;;;;;9.19;40.63;101391.66;5005599;28;20049;-67
2022/03/13 08:17:18;;;;;;;26.63;10.90;;;;;;;9.30;40.24;101398.19;5013853;28;20033;-68
2022/03/13 08:19:44;;;;;;;29.10;11.98;;;;;;;9.25;40.53;101394.03;5018311;28;20070;-67
2022/03/13 08:22:09;;;;;;;23.60;12.15;;;;;;;9.56;40.28;101393.34;5027859;28;20081;-68
2022/03/13 08:24:35;;;;;;;26.50;11.93;;;;;;;9.54;39.98;101393.44;5013006;28;20033;-67
2022/03/13 08:27:00;;;;;;;22.08;11.30;;;;;;;9.62;40.45;101397.50;5014877;28;20037;-66
2022/03/13 08:29:25;;;;;;;23.23;11.23;;;;;;;9.60;39.78;101394.94;5020385;28;20706;-68
2022/03/13 08:31:51;;;;;;;23.35;12.15;;;;;;;9.70;39.38;101388.19;5019143;28;20099;-68
2022/03/13 08:34:17;;;;;;;23.60;11.68;;;;;;;9.81;39.45;101392.97;5017110;28;20908;-67
2022/03/13 08:36:46;;;;;;;22.92;11.82;;;;;;;9.68;39.00;101392.72;5006641;28;20056;-68
2022/03/13 08:39:12;;;;;;;19.65;11.70;;;;;;;9.70;38.54;101387.34;5038576;28;20195;-67
2022/03/13 08:41:38;;;;;;;20.30;11.43;;;;;;;9.90;38.85;101394.31;5020857;28;20205;-68
2022/03/13 08:44:05;;;;;;;27.85;12.85;;;;;;;9.95;39.62;101386.94;5030132;28;20041;-67
2022/03/13 08:46:31;;;;;;;21.35;11.20;;;;;;;10.00;39.55;101395.56;5031340;28;20098;-66
2022/03/13 08:48:56;;;;;;;22.20;12.10;;;;;;;10.14;39.38;101401.03;5031438;28;20068;-67
2022/03/13 08:51:23;;;;;;;25.63;12.60;;;;;;;10.00;40.11;101400.88;5028888;28;20045;-68
2022/03/13 08:53:50;;;;;;;21.95;11.20;;;;;;;9.67;38.51;101391.00;5017899;28;20037;-67
2022/03/13 08:56:16;;;;;;;20.73;10.88;;;;;;;9.49;38.53;101389.28;5024565;28;20589;-67
2022/03/13 08:58:42;;;;;;;25.95;11.45;;;;;;;9.49;40.02;101389.28;5026512;28;20049;-67
2022/03/13 09:01:09;;;;;;;23.88;11.13;;;;;;;9.39;40.30;101378.25;5026884;28;20096;-66
2022/03/13 09:03:34;;;;;;;26.90;12.68;;;;;;;9.46;39.95;101389.44;5030947;28;20041;-67
2022/03/13 09:06:00;;;;;;;27.08;12.13;;;;;;;9.49;40.33;101389.28;5032376;28;20041;-69
2022/03/13 09:08:26;;;;;;;24.70;12.32;;;;;;;9.44;40.58;101389.53;5026039;28;20716;-66
2022/03/13 09:10:52;;;;;;;24.17;11.77;;;;;;;9.40;40.01;101387.94;5021290;28;20045;-67
2022/03/13 09:13:20;;;;;;;21.85;12.43;;;;;;;9.30;40.46;101386.66;5027371;28;20124;-67
2022/03/13 09:15:47;;;;;;;25.67;12.55;;;;;;;9.29;40.21;101383.16;5031759;28;20052;-67
2022/03/13 09:18:13;;;;;;;27.98;12.02;;;;;;;9.28;39.04;101389.38;5030845;28;20116;-66
2022/03/13 09:20:39;;;;;;;20.63;11.88;;;;;;;9.44;40.14;101385.97;5034381;28;20041;-66
2022/03/13 09:23:06;;;;;;;25.15;11.98;;;;;;;9.54;39.72;101388.13;5038511;28;20037;-67
2022/03/13 09:25:32;;;;;;;21.85;11.35;;;;;;;9.59;39.30;101382.56;5027571;28;20071;-67
2022/03/13 09:27:57;;;;;;;25.90;12.25;;;;;;;9.84;38.53;101380.38;5034165;28;20037;-67
2022/03/13 09:30:23;;;;;;;25.23;11.65;;;;;;;9.74;38.81;101372.91;5036835;28;20452;-68
2022/03/13 09:32:49;;;;;;;23.05;12.77;;;;;;;9.92;38.27;101371.97;5020542;28;20057;-67
2022/03/13 09:35:14;;;;;;;23.20;12.18;;;;;;;10.13;38.10;101364.63;5023564;28;20061;-65
2022/03/13 09:37:40;;;;;;;25.52;12.13;;;;;;;10.45;37.84;101364.75;5056103;28;20428;-67
2022/03/13 09:40:09;;;;;;;29.80;14.27;;;;;;;10.55;37.52;101352.66;5038972;28;20055;-69
2022/03/13 09:42:34;;;;;;;29.70;12.40;;;;;;;10.94;37.39;101359.34;5027313;28;20037;-67
2022/03/13 09:45:00;;;;;;;21.98;12.75;;;;;;;11.57;36.67;101367.28;5020343;28;20034;-67
2022/03/13 09:47:29;;;;;;;22.60;12.60;;;;;;;11.77;36.78;101368.75;5034459;28;20045;-67
2022/03/13 09:49:54;;;;;;;24.98;13.30;;;;;;;11.93;37.08;101365.09;5018863;28;20795;-67
2022/03/13 09:52:20;;;;;;;24.95;13.35;;;;;;;11.73;37.12;101360.06;5027158;28;20037;-67
2022/03/13 09:54:45;;;;;;;22.35;12.60;;;;;;;11.96;37.28;101355.19;5034314;28;20044;-67
2022/03/13 09:57:11;;;;;;;25.05;13.50;;;;;;;11.54;37.60;101362.09;5023396;28;20127;-67
2022/03/13 09:59:36;;;;;;;25.35;13.05;;;;;;;11.74;37.97;101361.78;5035977;28;20738;-67
2022/03/13 10:02:06;;;;;;;26.52;13.52;;;;;;;11.96;38.43;101360.53;5017470;28;20085;-67
2022/03/13 10:04:32;;;;;;;24.25;13.05;;;;;;;12.03;36.90;101354.69;5002495;28;20064;-67
2022/03/13 10:07:07;;;;;;;33.22;14.57;;;;;;;12.44;37.96;101348.59;5003375;28;20173;-67
2022/03/13 10:09:34;;;;;;;27.75;13.68;;;;;;;12.28;37.79;101353.19;5014651;28;20048;-67
2022/03/13 10:12:08;;;;;;;28.35;13.02;;;;;;;12.18;36.95;101348.41;5017181;28;20414;-66
2022/03/13 10:14:38;;;;;;;29.70;13.90;;;;;;;12.06;36.71;101346.50;5018411;28;20041;-67
2022/03/13 10:17:05;;;;;;;26.92;14.35;;;;;;;12.24;37.35;101346.31;5035502;28;20045;-67
2022/03/13 10:19:31;;;;;;;25.48;13.75;;;;;;;12.65;37.70;101338.34;5023345;28;20079;-67
2022/03/13 10:22:03;;;;;;;24.42;13.75;;;;;;;12.55;37.94;101337.22;5021787;28;20045;-67
2022/03/13 10:24:39;;;;;;;24.95;14.00;;;;;;;12.98;37.07;101334.44;5015830;28;20034;-67
2022/03/13 10:27:08;;;;;;;29.92;15.10;;;;;;;12.56;38.00;101330.94;5025785;28;20125;-67
2022/03/13 10:29:34;;;;;;;24.67;14.30;;;;;;;12.55;38.25;101326.50;5013638;28;20055;-67
2022/03/13 10:31:59;;;;;;;26.40;13.32;;;;;;;12.71;37.61;101321.91;5015212;28;20045;-67
2022/03/13 10:34:34;;;;;;;23.10;14.13;;;;;;;13.15;37.57;101321.69;5018857;28;20053;-67
2022/03/13 10:37:01;;;;;;;25.70;14.18;;;;;;;13.35;37.94;101314.13;5018320;28;20480;-67
2022/03/13 10:39:27;;;;;;;25.05;14.75;;;;;;;13.54;38.11;101314.59;5017702;28;20866;-67
2022/03/13 10:42:02;;;;;;;27.92;14.30;;;;;;;13.83;38.31;101311.75;5013874;28;20060;-67
2022/03/13 10:44:31;;;;;;;26.40;14.43;;;;;;;13.95;38.12;101314.41;5011098;28;20136;-67
2022/03/13 10:46:58;;;;;;;26.35;14.25;;;;;;;13.43;36.56;101317.16;5039494;28;20076;-68
2022/03/13 10:49:42;;;;;;;26.58;14.93;;;;;;;13.58;37.56;101321.47;5038549;28;20561;-67
2022/03/13 10:52:26;;;;;;;29.48;15.70;;;;;;;13.70;37.04;101312.63;5020875;28;20052;-67
2022/03/13 10:54:59;;;;;;;24.52;13.80;;;;;;;13.94;37.03;101309.19;5017474;28;20034;-67
2022/03/13 10:57:25;;;;;;;30.13;14.98;;;;;;;13.80;36.46;101298.56;5028285;28;20513;-67
2022/03/13 11:00:10;;;;;;;24.83;14.82;;;;;;;14.22;37.14;101311.63;5020085;28;20056;-67
2022/03/13 11:02:36;;;;;;;27.13;13.93;;;;;;;13.91;37.91;101320.13;5033950;28;20110;-67
2022/03/13 11:05:01;;;;;;;24.88;13.63;;;;;;;13.82;38.48;101305.53;5041586;28;20044;-67
2022/03/13 11:07:27;;;;;;;30.98;14.68;;;;;;;14.15;38.04;101306.81;5021769;28;20048;-67
2022/03/13 11:09:56;;;;;;;25.02;14.48;;;;;;;13.98;37.29;101311.53;5027240;28;20053;-67
2022/03/13 11:12:23;;;;;;;27.17;14.15;;;;;;;14.07;37.91;101307.34;5041334;28;20052;-68
2022/03/13 11:14:50;;;;;;;26.40;14.63;;;;;;;14.36;39.16;101301.75;5001170;28;20038;-68
2022/03/13 11:17:22;;;;;;;26.65;15.10;;;;;;;14.47;37.62;101301.81;5019967;28;20050;-67